sensor_id;sensor_type;location;lat;lon;timestamp;pressure;altitude;pressure_sealevel;temperature
15144;BMP180;7672;50.834;6.286;2022-12-24T00:01:06;98877.59;;;14.48
15144;BMP180;7672;50.834;6.286;2022-12-24T00:03:35;98865.78;;;14.47
15144;BMP180;7672;50.834;6.286;2022-12-24T00:06:08;98886.94;;;14.47
15144;BMP180;7672;50.834;6.286;2022-12-24T00:08:36;98897.91;;;14.51
15144;BMP180;7672;50.834;6.286;2022-12-24T00:11:03;98888.53;;;14.51
15144;BMP180;7672;50.834;6.286;2022-12-24T00:13:29;98896.84;;;14.58
15144;BMP180;7672;50.834;6.286;2022-12-24T00:15:59;98890.13;;;14.55
15144;BMP180;7672;50.834;6.286;2022-12-24T00:18:26;98894.31;;;14.58
15144;BMP180;7672;50.834;6.286;2022-12-24T00:20:53;98895.94;;;14.60
15144;BMP180;7672;50.834;6.286;2022-12-24T00:23:20;98888.41;;;14.57
15144;BMP180;7672;50.834;6.286;2022-12-24T00:25:47;98883.31;;;14.57
15144;BMP180;7672;50.834;6.286;2022-12-24T00:28:15;98871.44;;;14.58
15144;BMP180;7672;50.834;6.286;2022-12-24T00:30:42;98878.91;;;14.64
15144;BMP180;7672;50.834;6.286;2022-12-24T00:33:10;98887.34;;;14.66
15144;BMP180;7672;50.834;6.286;2022-12-24T00:35:39;98889.00;;;14.67
15144;BMP180;7672;50.834;6.286;2022-12-24T00:38:07;98892.34;;;14.69
15144;BMP180;7672;50.834;6.286;2022-12-24T00:40:34;98897.44;;;14.69
15144;BMP180;7672;50.834;6.286;2022-12-24T00:43:01;98898.13;;;14.75
15144;BMP180;7672;50.834;6.286;2022-12-24T00:45:28;98915.13;;;14.73
15144;BMP180;7672;50.834;6.286;2022-12-24T00:47:55;98899.81;;;14.76
15144;BMP180;7672;50.834;6.286;2022-12-24T00:50:22;98904.03;;;14.76
15144;BMP180;7672;50.834;6.286;2022-12-24T00:52:49;98920.16;;;14.76
15144;BMP180;7672;50.834;6.286;2022-12-24T00:55:16;98927.72;;;14.78
15144;BMP180;7672;50.834;6.286;2022-12-24T00:57:43;98920.25;;;14.72
15144;BMP180;7672;50.834;6.286;2022-12-24T01:00:10;98929.63;;;14.70
15144;BMP180;7672;50.834;6.286;2022-12-24T01:02:37;98923.75;;;14.68
15144;BMP180;7672;50.834;6.286;2022-12-24T01:05:04;98928.00;;;14.67
15144;BMP180;7672;50.834;6.286;2022-12-24T01:07:41;98947.47;;;14.68
15144;BMP180;7672;50.834;6.286;2022-12-24T01:10:13;98964.56;;;14.63
15144;BMP180;7672;50.834;6.286;2022-12-24T01:12:40;98956.03;;;14.64
15144;BMP180;7672;50.834;6.286;2022-12-24T01:15:09;98957.78;;;14.62
15144;BMP180;7672;50.834;6.286;2022-12-24T01:17:36;98966.28;;;14.61
15144;BMP180;7672;50.834;6.286;2022-12-24T01:20:07;98956.19;;;14.58
15144;BMP180;7672;50.834;6.286;2022-12-24T01:22:34;98967.22;;;14.57
15144;BMP180;7672;50.834;6.286;2022-12-24T01:25:01;98951.22;;;14.54
15144;BMP180;7672;50.834;6.286;2022-12-24T01:27:28;98960.56;;;14.53
15144;BMP180;7672;50.834;6.286;2022-12-24T01:29:55;98973.25;;;14.53
15144;BMP180;7672;50.834;6.286;2022-12-24T01:32:22;98968.34;;;14.46
15144;BMP180;7672;50.834;6.286;2022-12-24T01:34:49;98966.75;;;14.42
15144;BMP180;7672;50.834;6.286;2022-12-24T01:37:15;98963.41;;;14.40
15144;BMP180;7672;50.834;6.286;2022-12-24T01:39:42;98963.44;;;14.38
15144;BMP180;7672;50.834;6.286;2022-12-24T01:42:21;98969.44;;;14.36
15144;BMP180;7672;50.834;6.286;2022-12-24T01:50:58;98977.34;;;14.22
15144;BMP180;7672;50.834;6.286;2022-12-24T01:53:28;98982.41;;;14.22
15144;BMP180;7672;50.834;6.286;2022-12-24T01:55:57;98972.28;;;14.21
15144;BMP180;7672;50.834;6.286;2022-12-24T01:58:26;98968.06;;;14.20
15144;BMP180;7672;50.834;6.286;2022-12-24T02:00:53;98972.34;;;14.20
15144;BMP180;7672;50.834;6.286;2022-12-24T02:03:20;98980.00;;;14.18
15144;BMP180;7672;50.834;6.286;2022-12-24T02:05:50;98982.63;;;14.15
15144;BMP180;7672;50.834;6.286;2022-12-24T02:08:19;98982.63;;;14.14
15144;BMP180;7672;50.834;6.286;2022-12-24T02:10:47;98985.13;;;14.17
15144;BMP180;7672;50.834;6.286;2022-12-24T02:13:19;98988.56;;;14.14
15144;BMP180;7672;50.834;6.286;2022-12-24T02:19:00;99004.75;;;14.10
15144;BMP180;7672;50.834;6.286;2022-12-24T02:25:32;99001.34;;;14.10
15144;BMP180;7672;50.834;6.286;2022-12-24T02:30:52;99018.22;;;14.12
15144;BMP180;7672;50.834;6.286;2022-12-24T02:33:47;99036.84;;;14.14
15144;BMP180;7672;50.834;6.286;2022-12-24T02:36:30;99024.13;;;14.14
15144;BMP180;7672;50.834;6.286;2022-12-24T02:39:10;99041.97;;;14.13
15144;BMP180;7672;50.834;6.286;2022-12-24T02:41:45;99044.47;;;14.14
15144;BMP180;7672;50.834;6.286;2022-12-24T02:44:49;99042.03;;;14.07
15144;BMP180;7672;50.834;6.286;2022-12-24T02:47:21;99050.63;;;14.00
15144;BMP180;7672;50.834;6.286;2022-12-24T02:49:48;99060.03;;;13.96
15144;BMP180;7672;50.834;6.286;2022-12-24T02:52:35;99066.91;;;13.91
15144;BMP180;7672;50.834;6.286;2022-12-24T03:01:54;99069.75;;;13.75
15144;BMP180;7672;50.834;6.286;2022-12-24T03:07:27;99083.41;;;13.68
15144;BMP180;7672;50.834;6.286;2022-12-24T03:12:47;99080.94;;;13.65
15144;BMP180;7672;50.834;6.286;2022-12-24T03:15:19;99091.97;;;13.64
15144;BMP180;7672;50.834;6.286;2022-12-24T03:17:51;99088.63;;;13.60
15144;BMP180;7672;50.834;6.286;2022-12-24T03:20:25;99103.03;;;13.60
15144;BMP180;7672;50.834;6.286;2022-12-24T03:22:53;99094.59;;;13.59
15144;BMP180;7672;50.834;6.286;2022-12-24T03:25:23;99081.13;;;13.56
15144;BMP180;7672;50.834;6.286;2022-12-24T03:27:52;99087.03;;;13.55
15144;BMP180;7672;50.834;6.286;2022-12-24T03:30:20;99098.09;;;13.53
15144;BMP180;7672;50.834;6.286;2022-12-24T03:32:47;99104.06;;;13.50
15144;BMP180;7672;50.834;6.286;2022-12-24T03:35:14;99092.28;;;13.46
15144;BMP180;7672;50.834;6.286;2022-12-24T03:37:40;99094.88;;;13.43
15144;BMP180;7672;50.834;6.286;2022-12-24T03:40:08;99105.03;;;13.42
15144;BMP180;7672;50.834;6.286;2022-12-24T03:42:35;99100.84;;;13.39
15144;BMP180;7672;50.834;6.286;2022-12-24T03:45:02;99095.00;;;13.36
15144;BMP180;7672;50.834;6.286;2022-12-24T03:47:30;99098.47;;;13.32
15144;BMP180;7672;50.834;6.286;2022-12-24T03:49:57;99103.50;;;13.33
15144;BMP180;7672;50.834;6.286;2022-12-24T03:52:24;99095.06;;;13.31
15144;BMP180;7672;50.834;6.286;2022-12-24T03:54:50;99092.53;;;13.31
15144;BMP180;7672;50.834;6.286;2022-12-24T03:57:17;99087.50;;;13.28
15144;BMP180;7672;50.834;6.286;2022-12-24T03:59:44;99089.22;;;13.26
15144;BMP180;7672;50.834;6.286;2022-12-24T04:02:11;99086.72;;;13.25
15144;BMP180;7672;50.834;6.286;2022-12-24T04:04:40;99084.25;;;13.22
15144;BMP180;7672;50.834;6.286;2022-12-24T04:07:07;99077.50;;;13.19
15144;BMP180;7672;50.834;6.286;2022-12-24T04:09:34;99079.25;;;13.16
15144;BMP180;7672;50.834;6.286;2022-12-24T04:12:01;99091.19;;;13.09
15144;BMP180;7672;50.834;6.286;2022-12-24T04:14:28;99087.91;;;13.04
15144;BMP180;7672;50.834;6.286;2022-12-24T04:16:54;99093.03;;;13.01
15144;BMP180;7672;50.834;6.286;2022-12-24T04:19:21;99087.19;;;12.97
15144;BMP180;7672;50.834;6.286;2022-12-24T04:21:48;99093.13;;;12.94
15144;BMP180;7672;50.834;6.286;2022-12-24T04:24:15;99093.13;;;12.94
15144;BMP180;7672;50.834;6.286;2022-12-24T04:26:42;99099.91;;;12.95
15144;BMP180;7672;50.834;6.286;2022-12-24T04:29:08;99104.09;;;12.95
15144;BMP180;7672;50.834;6.286;2022-12-24T04:31:35;99106.63;;;12.96
15144;BMP180;7672;50.834;6.286;2022-12-24T04:34:02;99112.50;;;12.99
15144;BMP180;7672;50.834;6.286;2022-12-24T04:36:29;99109.06;;;13.02
15144;BMP180;7672;50.834;6.286;2022-12-24T04:38:56;99113.25;;;13.04
15144;BMP180;7672;50.834;6.286;2022-12-24T04:41:23;99121.66;;;13.09
15144;BMP180;7672;50.834;6.286;2022-12-24T04:43:54;99117.38;;;13.13
15144;BMP180;7672;50.834;6.286;2022-12-24T04:46:24;99121.53;;;13.17
15144;BMP180;7672;50.834;6.286;2022-12-24T04:48:53;99130.81;;;13.18
15144;BMP180;7672;50.834;6.286;2022-12-24T04:51:21;99129.94;;;13.20
15144;BMP180;7672;50.834;6.286;2022-12-24T04:53:48;99133.22;;;13.25
15144;BMP180;7672;50.834;6.286;2022-12-24T04:56:24;99138.25;;;13.28
15144;BMP180;7672;50.834;6.286;2022-12-24T04:58:51;99139.84;;;13.35
15144;BMP180;7672;50.834;6.286;2022-12-24T05:01:25;99143.25;;;13.34
15144;BMP180;7672;50.834;6.286;2022-12-24T05:03:53;99138.94;;;13.38
15144;BMP180;7672;50.834;6.286;2022-12-24T05:06:28;99145.69;;;13.40
15144;BMP180;7672;50.834;6.286;2022-12-24T05:08:57;99152.44;;;13.41
15144;BMP180;7672;50.834;6.286;2022-12-24T05:11:24;99157.44;;;13.47
15144;BMP180;7672;50.834;6.286;2022-12-24T05:13:51;99148.94;;;13.50
15144;BMP180;7672;50.834;6.286;2022-12-24T05:16:20;99148.03;;;13.52
15144;BMP180;7672;50.834;6.286;2022-12-24T05:18:48;99149.69;;;13.53
15144;BMP180;7672;50.834;6.286;2022-12-24T05:21:19;99147.97;;;13.55
15144;BMP180;7672;50.834;6.286;2022-12-24T05:23:50;99148.81;;;13.56
15144;BMP180;7672;50.834;6.286;2022-12-24T05:26:41;99158.13;;;13.55
15144;BMP180;7672;50.834;6.286;2022-12-24T05:29:11;99158.09;;;13.57
15144;BMP180;7672;50.834;6.286;2022-12-24T05:31:38;99168.22;;;13.59
15144;BMP180;7672;50.834;6.286;2022-12-24T05:34:08;99157.19;;;13.60
15144;BMP180;7672;50.834;6.286;2022-12-24T05:36:35;99166.41;;;13.64
15144;BMP180;7672;50.834;6.286;2022-12-24T05:39:03;99163.84;;;13.67
15144;BMP180;7672;50.834;6.286;2022-12-24T05:41:39;99156.19;;;13.70
15144;BMP180;7672;50.834;6.286;2022-12-24T05:44:06;99164.59;;;13.74
15144;BMP180;7672;50.834;6.286;2022-12-24T05:46:33;99172.16;;;13.77
15144;BMP180;7672;50.834;6.286;2022-12-24T05:49:00;99167.84;;;13.80
15144;BMP180;7672;50.834;6.286;2022-12-24T05:51:26;99161.06;;;13.81
15144;BMP180;7672;50.834;6.286;2022-12-24T05:53:53;99157.66;;;13.82
15144;BMP180;7672;50.834;6.286;2022-12-24T05:56:23;99165.25;;;13.85
15144;BMP180;7672;50.834;6.286;2022-12-24T05:58:51;99174.53;;;13.86
15144;BMP180;7672;50.834;6.286;2022-12-24T06:01:21;99175.34;;;13.88
15144;BMP180;7672;50.834;6.286;2022-12-24T06:03:50;99183.84;;;13.85
15144;BMP180;7672;50.834;6.286;2022-12-24T06:06:23;99199.88;;;13.90
15144;BMP180;7672;50.834;6.286;2022-12-24T06:08:53;99199.00;;;13.91
15144;BMP180;7672;50.834;6.286;2022-12-24T06:11:24;99204.88;;;13.93
15144;BMP180;7672;50.834;6.286;2022-12-24T06:13:52;99208.28;;;13.94
15144;BMP180;7672;50.834;6.286;2022-12-24T06:16:21;99208.22;;;13.97
15144;BMP180;7672;50.834;6.286;2022-12-24T06:18:49;99207.38;;;13.95
15144;BMP180;7672;50.834;6.286;2022-12-24T06:21:16;99218.38;;;13.97
15144;BMP180;7672;50.834;6.286;2022-12-24T06:23:44;99228.50;;;13.98
15144;BMP180;7672;50.834;6.286;2022-12-24T06:26:15;99229.38;;;13.99
15144;BMP180;7672;50.834;6.286;2022-12-24T06:28:44;99220.94;;;14.43
15144;BMP180;7672;50.834;6.286;2022-12-24T06:31:15;99228.56;;;14.43
15144;BMP180;7672;50.834;6.286;2022-12-24T06:33:43;99215.31;;;14.28
15144;BMP180;7672;50.834;6.286;2022-12-24T06:36:18;99223.09;;;14.19
15144;BMP180;7672;50.834;6.286;2022-12-24T06:38:46;99224.09;;;14.11
15144;BMP180;7672;50.834;6.286;2022-12-24T06:41:14;99219.91;;;14.07
15144;BMP180;7672;50.834;6.286;2022-12-24T06:43:46;99230.91;;;14.06
15144;BMP180;7672;50.834;6.286;2022-12-24T06:46:15;99234.28;;;14.06
15144;BMP180;7672;50.834;6.286;2022-12-24T06:48:46;99229.22;;;14.09
15144;BMP180;7672;50.834;6.286;2022-12-24T06:51:15;99246.13;;;14.07
15144;BMP180;7672;50.834;6.286;2022-12-24T06:53:41;99235.16;;;14.07
15144;BMP180;7672;50.834;6.286;2022-12-24T06:56:11;99241.91;;;14.06
15144;BMP180;7672;50.834;6.286;2022-12-24T06:58:39;99240.22;;;14.08
15144;BMP180;7672;50.834;6.286;2022-12-24T07:01:10;99237.69;;;14.08
15144;BMP180;7672;50.834;6.286;2022-12-24T07:03:39;99233.53;;;14.03
15144;BMP180;7672;50.834;6.286;2022-12-24T07:06:07;99239.41;;;14.05
15144;BMP180;7672;50.834;6.286;2022-12-24T07:08:36;99250.44;;;14.02
15144;BMP180;7672;50.834;6.286;2022-12-24T07:11:03;99251.31;;;14.03
15144;BMP180;7672;50.834;6.286;2022-12-24T07:13:30;99235.25;;;14.01
15144;BMP180;7672;50.834;6.286;2022-12-24T07:16:03;99249.69;;;13.99
15144;BMP180;7672;50.834;6.286;2022-12-24T07:18:31;99245.47;;;13.98
15144;BMP180;7672;50.834;6.286;2022-12-24T07:20:58;99248.03;;;13.95
15144;BMP180;7672;50.834;6.286;2022-12-24T07:23:25;99262.50;;;13.91
15144;BMP180;7672;50.834;6.286;2022-12-24T07:25:52;99251.50;;;13.91
15144;BMP180;7672;50.834;6.286;2022-12-24T07:28:19;99268.50;;;13.87
15144;BMP180;7672;50.834;6.286;2022-12-24T07:30:55;99268.56;;;13.83
15144;BMP180;7672;50.834;6.286;2022-12-24T07:33:24;99277.06;;;13.80
15144;BMP180;7672;50.834;6.286;2022-12-24T07:36:07;99273.69;;;13.78
15144;BMP180;7672;50.834;6.286;2022-12-24T07:38:37;99273.72;;;13.77
15144;BMP180;7672;50.834;6.286;2022-12-24T07:41:04;99272.94;;;13.75
15144;BMP180;7672;50.834;6.286;2022-12-24T07:43:32;99283.09;;;13.75
15144;BMP180;7672;50.834;6.286;2022-12-24T07:45:59;99283.94;;;13.74
15144;BMP180;7672;50.834;6.286;2022-12-24T07:48:28;99289.84;;;13.76
15144;BMP180;7672;50.834;6.286;2022-12-24T07:50:57;99291.47;;;13.78
15144;BMP180;7672;50.834;6.286;2022-12-24T07:53:27;99288.94;;;13.78
15144;BMP180;7672;50.834;6.286;2022-12-24T07:55:55;99294.00;;;13.81
15144;BMP180;7672;50.834;6.286;2022-12-24T07:58:23;99297.34;;;13.83
15144;BMP180;7672;50.834;6.286;2022-12-24T08:00:58;99306.59;;;13.86
15144;BMP180;7672;50.834;6.286;2022-12-24T08:03:26;99314.22;;;13.86
15144;BMP180;7672;50.834;6.286;2022-12-24T08:05:55;99321.81;;;13.89
15144;BMP180;7672;50.834;6.286;2022-12-24T08:08:24;99326.84;;;13.92
15144;BMP180;7672;50.834;6.286;2022-12-24T08:10:52;99321.72;;;13.95
15144;BMP180;7672;50.834;6.286;2022-12-24T08:13:20;99325.88;;;14.00
15144;BMP180;7672;50.834;6.286;2022-12-24T08:15:48;99320.81;;;14.00
15144;BMP180;7672;50.834;6.286;2022-12-24T08:18:15;99328.34;;;14.05
15144;BMP180;7672;50.834;6.286;2022-12-24T08:20:42;99325.75;;;14.06
15144;BMP180;7672;50.834;6.286;2022-12-24T08:23:09;99328.31;;;14.08
15144;BMP180;7672;50.834;6.286;2022-12-24T08:25:36;99333.34;;;14.12
15144;BMP180;7672;50.834;6.286;2022-12-24T08:28:04;99335.84;;;14.15
15144;BMP180;7672;50.834;6.286;2022-12-24T08:30:31;99350.16;;;14.21
15144;BMP180;7672;50.834;6.286;2022-12-24T08:32:59;99343.19;;;14.30
15144;BMP180;7672;50.834;6.286;2022-12-24T08:35:26;99344.00;;;14.33
15144;BMP180;7672;50.834;6.286;2022-12-24T08:37:53;99343.09;;;14.37
15144;BMP180;7672;50.834;6.286;2022-12-24T08:40:21;99345.59;;;14.40
15144;BMP180;7672;50.834;6.286;2022-12-24T08:42:48;99348.88;;;14.47
15144;BMP180;7672;50.834;6.286;2022-12-24T08:45:16;99350.41;;;14.55
15144;BMP180;7672;50.834;6.286;2022-12-24T08:47:43;99355.22;;;14.70
15144;BMP180;7672;50.834;6.286;2022-12-24T08:50:10;99358.38;;;14.82
15144;BMP180;7672;50.834;6.286;2022-12-24T08:52:38;99357.31;;;14.94
15144;BMP180;7672;50.834;6.286;2022-12-24T08:55:06;99358.84;;;15.04
15144;BMP180;7672;50.834;6.286;2022-12-24T08:57:37;99352.81;;;15.08
15144;BMP180;7672;50.834;6.286;2022-12-24T09:00:06;99362.06;;;15.12
15144;BMP180;7672;50.834;6.286;2022-12-24T09:02:34;99369.75;;;15.10
15144;BMP180;7672;50.834;6.286;2022-12-24T09:05:02;99377.31;;;15.13
15144;BMP180;7672;50.834;6.286;2022-12-24T09:07:29;99373.84;;;15.16
15144;BMP180;7672;50.834;6.286;2022-12-24T09:09:59;99373.00;;;15.17
15144;BMP180;7672;50.834;6.286;2022-12-24T09:12:32;99367.09;;;15.15
15144;BMP180;7672;50.834;6.286;2022-12-24T09:15:08;99384.03;;;15.16
15144;BMP180;7672;50.834;6.286;2022-12-24T09:17:58;99377.25;;;15.16
15144;BMP180;7672;50.834;6.286;2022-12-24T09:20:37;99382.38;;;15.13
15144;BMP180;7672;50.834;6.286;2022-12-24T09:23:20;99388.31;;;15.15
15144;BMP180;7672;50.834;6.286;2022-12-24T09:26:24;99396.00;;;15.11
15144;BMP180;7672;50.834;6.286;2022-12-24T09:29:10;99394.41;;;15.07
15144;BMP180;7672;50.834;6.286;2022-12-24T09:31:50;99403.69;;;15.09
15144;BMP180;7672;50.834;6.286;2022-12-24T09:34:48;99413.78;;;15.12
15144;BMP180;7672;50.834;6.286;2022-12-24T09:37:29;99404.38;;;15.19
15144;BMP180;7672;50.834;6.286;2022-12-24T09:40:00;99409.19;;;15.34
15144;BMP180;7672;50.834;6.286;2022-12-24T09:42:52;99399.66;;;15.43
15144;BMP180;7672;50.834;6.286;2022-12-24T09:45:31;99418.22;;;15.49
15144;BMP180;7672;50.834;6.286;2022-12-24T09:48:17;99431.66;;;15.56
15144;BMP180;7672;50.834;6.286;2022-12-24T09:51:08;99425.66;;;15.58
15144;BMP180;7672;50.834;6.286;2022-12-24T09:56:39;99448.31;;;15.72
15144;BMP180;7672;50.834;6.286;2022-12-24T09:59:43;99441.44;;;15.77
15144;BMP180;7672;50.834;6.286;2022-12-24T10:02:16;99445.59;;;15.79
15144;BMP180;7672;50.834;6.286;2022-12-24T10:04:47;99430.38;;;15.76
15144;BMP180;7672;50.834;6.286;2022-12-24T10:07:32;99453.31;;;15.76
15144;BMP180;7672;50.834;6.286;2022-12-24T10:10:40;99440.69;;;15.70
15144;BMP180;7672;50.834;6.286;2022-12-24T10:13:36;99440.75;;;15.67
15144;BMP180;7672;50.834;6.286;2022-12-24T10:22:55;99453.69;;;15.58
15144;BMP180;7672;50.834;6.286;2022-12-24T10:28:52;99468.97;;;15.58
15144;BMP180;7672;50.834;6.286;2022-12-24T10:31:38;99474.00;;;15.63
15144;BMP180;7672;50.834;6.286;2022-12-24T10:34:22;99468.81;;;15.66
15144;BMP180;7672;50.834;6.286;2022-12-24T10:36:50;99462.75;;;15.71
15144;BMP180;7672;50.834;6.286;2022-12-24T10:39:23;99471.22;;;15.73
15144;BMP180;7672;50.834;6.286;2022-12-24T10:41:58;99460.13;;;15.76
15144;BMP180;7672;50.834;6.286;2022-12-24T10:44:36;99456.72;;;15.75
15144;BMP180;7672;50.834;6.286;2022-12-24T10:47:06;99454.13;;;15.78
15144;BMP180;7672;50.834;6.286;2022-12-24T10:49:44;99448.09;;;15.82
15144;BMP180;7672;50.834;6.286;2022-12-24T10:52:16;99443.78;;;15.84
15144;BMP180;7672;50.834;6.286;2022-12-24T10:55:23;99454.72;;;15.89
15144;BMP180;7672;50.834;6.286;2022-12-24T10:58:04;99457.97;;;15.96
15144;BMP180;7672;50.834;6.286;2022-12-24T11:00:32;99456.22;;;15.99
15144;BMP180;7672;50.834;6.286;2022-12-24T11:05:39;99457.66;;;16.10
15144;BMP180;7672;50.834;6.286;2022-12-24T11:08:17;99448.13;;;16.18
15144;BMP180;7672;50.834;6.286;2022-12-24T11:11:05;99449.69;;;16.25
15144;BMP180;7672;50.834;6.286;2022-12-24T11:13:38;99447.88;;;16.32
15144;BMP180;7672;50.834;6.286;2022-12-24T11:16:16;99441.84;;;16.34
15144;BMP180;7672;50.834;6.286;2022-12-24T11:18:51;99442.63;;;16.38
15144;BMP180;7672;50.834;6.286;2022-12-24T11:21:35;99445.19;;;16.38
15144;BMP180;7672;50.834;6.286;2022-12-24T11:24:31;99443.50;;;16.37
15144;BMP180;7672;50.834;6.286;2022-12-24T11:27:29;99454.56;;;16.36
15144;BMP180;7672;50.834;6.286;2022-12-24T11:33:15;99447.00;;;16.68
15144;BMP180;7672;50.834;6.286;2022-12-24T11:35:48;99447.19;;;16.60
15144;BMP180;7672;50.834;6.286;2022-12-24T11:38:23;99454.88;;;16.59
15144;BMP180;7672;50.834;6.286;2022-12-24T11:41:10;99459.19;;;16.57
15144;BMP180;7672;50.834;6.286;2022-12-24T11:43:47;99457.47;;;16.57
15144;BMP180;7672;50.834;6.286;2022-12-24T11:51:59;99448.97;;;16.57
15144;BMP180;7672;50.834;6.286;2022-12-24T11:54:39;99447.38;;;16.53
15144;BMP180;7672;50.834;6.286;2022-12-24T11:57:12;99443.16;;;16.52
15144;BMP180;7672;50.834;6.286;2022-12-24T11:59:45;99450.72;;;16.55
15144;BMP180;7672;50.834;6.286;2022-12-24T12:02:37;99447.38;;;16.53
15144;BMP180;7672;50.834;6.286;2022-12-24T12:05:21;99449.94;;;16.51
15144;BMP180;7672;50.834;6.286;2022-12-24T12:07:54;99461.06;;;16.49
15144;BMP180;7672;50.834;6.286;2022-12-24T12:10:30;99467.88;;;16.48
15144;BMP180;7672;50.834;6.286;2022-12-24T12:13:12;99462.00;;;16.45
15144;BMP180;7672;50.834;6.286;2022-12-24T12:16:02;99458.72;;;16.41
15144;BMP180;7672;50.834;6.286;2022-12-24T12:18:40;99465.47;;;16.42
15144;BMP180;7672;50.834;6.286;2022-12-24T12:21:18;99467.16;;;16.43
15144;BMP180;7672;50.834;6.286;2022-12-24T12:23:52;99467.88;;;16.48
15144;BMP180;7672;50.834;6.286;2022-12-24T12:26:28;99470.25;;;16.56
15144;BMP180;7672;50.834;6.286;2022-12-24T12:29:15;99477.66;;;16.66
15144;BMP180;7672;50.834;6.286;2022-12-24T12:32:01;99470.56;;;16.78
15144;BMP180;7672;50.834;6.286;2022-12-24T12:34:43;99477.13;;;16.88
15144;BMP180;7672;50.834;6.286;2022-12-24T12:37:24;99471.78;;;16.97
15144;BMP180;7672;50.834;6.286;2022-12-24T12:39:52;99484.41;;;17.03
15144;BMP180;7672;50.834;6.286;2022-12-24T12:42:30;99482.47;;;17.11
15144;BMP180;7672;50.834;6.286;2022-12-24T12:45:27;99490.00;;;17.17
15144;BMP180;7672;50.834;6.286;2022-12-24T12:50:57;99477.91;;;17.24
15144;BMP180;7672;50.834;6.286;2022-12-24T12:53:58;99459.16;;;17.26
15144;BMP180;7672;50.834;6.286;2022-12-24T12:56:36;99465.03;;;17.28
15144;BMP180;7672;50.834;6.286;2022-12-24T12:59:18;99471.00;;;17.27
15144;BMP180;7672;50.834;6.286;2022-12-24T13:10:45;99483.78;;;17.27
15144;BMP180;7672;50.834;6.286;2022-12-24T13:13:43;99485.47;;;17.28
15144;BMP180;7672;50.834;6.286;2022-12-24T13:22:32;99492.03;;;17.38
15144;BMP180;7672;50.834;6.286;2022-12-24T13:24:59;99501.22;;;17.45
15144;BMP180;7672;50.834;6.286;2022-12-24T13:27:31;99491.66;;;17.51
15144;BMP180;7672;50.834;6.286;2022-12-24T13:30:52;99494.16;;;17.53
15144;BMP180;7672;50.834;6.286;2022-12-24T13:36:12;99501.13;;;17.48
15144;BMP180;7672;50.834;6.286;2022-12-24T13:47:03;99516.94;;;17.30
15144;BMP180;7672;50.834;6.286;2022-12-24T13:49:45;99507.69;;;17.23
15144;BMP180;7672;50.834;6.286;2022-12-24T13:52:17;99516.28;;;17.21
15144;BMP180;7672;50.834;6.286;2022-12-24T14:02:59;99514.13;;;17.06
15144;BMP180;7672;50.834;6.286;2022-12-24T14:05:38;99523.56;;;17.02
15144;BMP180;7672;50.834;6.286;2022-12-24T14:08:15;99521.97;;;16.98
15144;BMP180;7672;50.834;6.286;2022-12-24T14:11:01;99530.50;;;16.97
15144;BMP180;7672;50.834;6.286;2022-12-24T14:16:18;99530.63;;;16.91
15144;BMP180;7672;50.834;6.286;2022-12-24T14:19:12;99524.81;;;16.86
15144;BMP180;7672;50.834;6.286;2022-12-24T14:21:54;99515.53;;;16.82
15144;BMP180;7672;50.834;6.286;2022-12-24T14:24:26;99519.91;;;16.77
15144;BMP180;7672;50.834;6.286;2022-12-24T14:27:05;99524.31;;;16.71
15144;BMP180;7672;50.834;6.286;2022-12-24T14:29:45;99525.31;;;16.66
15144;BMP180;7672;50.834;6.286;2022-12-24T14:32:16;99527.91;;;16.63
15144;BMP180;7672;50.834;6.286;2022-12-24T14:34:43;99523.72;;;16.60
15144;BMP180;7672;50.834;6.286;2022-12-24T14:37:14;99527.19;;;16.58
15144;BMP180;7672;50.834;6.286;2022-12-24T14:39:47;99528.13;;;16.55
15144;BMP180;7672;50.834;6.286;2022-12-24T14:56:19;99564.25;;;16.36
15144;BMP180;7672;50.834;6.286;2022-12-24T14:58:47;99566.00;;;16.34
15144;BMP180;7672;50.834;6.286;2022-12-24T15:04:13;99560.13;;;16.30
15144;BMP180;7672;50.834;6.286;2022-12-24T15:06:51;99570.34;;;16.29
15144;BMP180;7672;50.834;6.286;2022-12-24T15:09:29;99579.72;;;16.27
15144;BMP180;7672;50.834;6.286;2022-12-24T15:12:00;99587.44;;;16.24
15144;BMP180;7672;50.834;6.286;2022-12-24T15:14:35;99590.25;;;16.53
15144;BMP180;7672;50.834;6.286;2022-12-24T15:17:09;99585.31;;;16.45
15144;BMP180;7672;50.834;6.286;2022-12-24T15:19:41;99592.34;;;16.34
15144;BMP180;7672;50.834;6.286;2022-12-24T15:22:30;99582.28;;;16.25
15144;BMP180;7672;50.834;6.286;2022-12-24T15:24:57;99588.38;;;16.20
15144;BMP180;7672;50.834;6.286;2022-12-24T15:27:31;99593.56;;;16.14
15144;BMP180;7672;50.834;6.286;2022-12-24T15:30:12;99603.03;;;16.09
15144;BMP180;7672;50.834;6.286;2022-12-24T15:32:40;99614.97;;;16.06
15144;BMP180;7672;50.834;6.286;2022-12-24T15:35:31;99614.22;;;16.02
15144;BMP180;7672;50.834;6.286;2022-12-24T15:38:02;99620.22;;;16.00
15144;BMP180;7672;50.834;6.286;2022-12-24T15:40:32;99616.88;;;15.96
15144;BMP180;7672;50.834;6.286;2022-12-24T15:43:00;99608.66;;;16.24
15144;BMP180;7672;50.834;6.286;2022-12-24T15:45:38;99618.22;;;16.15
15144;BMP180;7672;50.834;6.286;2022-12-24T15:48:10;99622.72;;;16.01
15144;BMP180;7672;50.834;6.286;2022-12-24T15:50:44;99621.19;;;15.93
15144;BMP180;7672;50.834;6.286;2022-12-24T15:53:16;99623.88;;;15.85
15144;BMP180;7672;50.834;6.286;2022-12-24T15:56:07;99618.94;;;15.76
15144;BMP180;7672;50.834;6.286;2022-12-24T16:06:18;99621.81;;;15.58
15144;BMP180;7672;50.834;6.286;2022-12-24T16:08:46;99613.38;;;15.55
15144;BMP180;7672;50.834;6.286;2022-12-24T16:11:24;99600.75;;;15.47
15144;BMP180;7672;50.834;6.286;2022-12-24T16:14:09;99605.16;;;15.40
15144;BMP180;7672;50.834;6.286;2022-12-24T16:16:41;99601.03;;;15.33
15144;BMP180;7672;50.834;6.286;2022-12-24T16:19:23;99614.72;;;15.26
15144;BMP180;7672;50.834;6.286;2022-12-24T16:22:00;99607.19;;;15.17
15144;BMP180;7672;50.834;6.286;2022-12-24T16:24:50;99620.94;;;15.07
15144;BMP180;7672;50.834;6.286;2022-12-24T16:27:21;99618.53;;;14.98
15144;BMP180;7672;50.834;6.286;2022-12-24T16:29:48;99622.88;;;14.91
15144;BMP180;7672;50.834;6.286;2022-12-24T16:32:34;99622.16;;;14.81
15144;BMP180;7672;50.834;6.286;2022-12-24T16:35:06;99619.72;;;14.73
15144;BMP180;7672;50.834;6.286;2022-12-24T16:37:34;99627.47;;;14.67
15144;BMP180;7672;50.834;6.286;2022-12-24T16:40:00;99629.25;;;14.61
15144;BMP180;7672;50.834;6.286;2022-12-24T16:42:27;99623.38;;;14.53
15144;BMP180;7672;50.834;6.286;2022-12-24T16:45:12;99626.88;;;14.46
15144;BMP180;7672;50.834;6.286;2022-12-24T16:47:39;99621.88;;;14.40
15144;BMP180;7672;50.834;6.286;2022-12-24T16:50:15;99626.16;;;14.36
15144;BMP180;7672;50.834;6.286;2022-12-24T16:52:42;99627.03;;;14.34